| time (UTC) | temp F | wind direction | speed MPH | gust MPH | rain 1hr in | rain 24hr in | rain mn in | humidity % | barometer mb |
| 20260509032038 | 46 | 196 | 2.0 | 2.0 | 0.00 | 0.00 | 0.00 | 62 | 1006.8 |
| 20260509031536 | 46 | 196 | 2.0 | 2.0 | 0.00 | 0.00 | 0.00 | 60 | 1006.8 |
| 20260509031033 | 46 | 195 | 2.0 | 2.0 | 0.00 | 0.00 | 0.00 | 55 | 1006.7 |
| 20260509030531 | 46 | 196 | 2.0 | 2.0 | 0.00 | 0.00 | 0.00 | 59 | 1006.8 |
| 20260509030027 | 45 | 197 | 1.0 | 2.0 | 0.00 | 0.00 | 0.00 | 61 | 1007.0 |
| 20260509025523 | 46 | 203 | 0.0 | 1.0 | 0.00 | 0.00 | 0.00 | 61 | 1007.1 |
| 20260509025019 | 47 | 203 | 2.0 | 2.0 | 0.00 | 0.00 | 0.00 | 55 | 1007.0 |
| 20260509024515 | 48 | 202 | 1.0 | 1.0 | 0.00 | 0.00 | 0.00 | 47 | 1007.1 |
| 20260509024012 | 48 | 203 | 1.0 | 1.0 | 0.00 | 0.00 | 0.00 | 47 | 1007.3 |
| 20260509023509 | 48 | 202 | 1.0 | 1.0 | 0.00 | 0.00 | 0.00 | 47 | 1007.0 |
| 20260509023006 | 48 | 203 | 0.0 | 1.0 | 0.00 | 0.00 | 0.00 | 48 | 1007.1 |
| 20260509022502 | 47 | 202 | 1.0 | 1.0 | 0.00 | 0.00 | 0.00 | 48 | 1007.1 |
| 20260509022000 | 48 | 202 | 0.0 | 1.0 | 0.00 | 0.00 | 0.00 | 54 | 1007.2 |
| 20260509021457 | 48 | 203 | 2.0 | 2.0 | 0.00 | 0.00 | 0.00 | 47 | 1007.1 |
| 20260509020954 | 49 | 203 | 1.0 | 0.0 | 0.00 | 0.00 | 0.00 | 44 | 1007.5 |
| 20260509020453 | 49 | 202 | 1.0 | 1.0 | 0.00 | 0.00 | 0.00 | 46 | 1007.1 |
| 20260509015949 | 49 | 203 | 1.0 | 1.0 | 0.00 | 0.00 | 0.00 | 49 | 1007.2 |
| 20260509015448 | 49 | 203 | 0.0 | 0.0 | 0.00 | 0.00 | 0.00 | 53 | 1007.3 |
| 20260509014944 | 50 | 202 | 1.0 | 2.0 | 0.00 | 0.00 | 0.00 | 49 | 1007.3 |
| 20260509014441 | 50 | 203 | 0.0 | 2.0 | 0.00 | 0.00 | 0.00 | 46 | 1007.4 |
| 20260509013937 | 49 | 202 | 2.0 | 2.0 | 0.00 | 0.00 | 0.00 | 44 | 1007.2 |
| 20260509013434 | 50 | 203 | 0.0 | 1.0 | 0.00 | 0.00 | 0.00 | 45 | 1007.2 |
| 20260509012930 | 50 | 203 | 1.0 | 1.0 | 0.00 | 0.00 | 0.00 | 44 | 1006.9 |
| 20260509012427 | 51 | 203 | 0.0 | 0.0 | 0.00 | 0.00 | 0.00 | 39 | 1007.0 |
| 20260509011924 | 52 | 203 | 1.0 | 1.0 | 0.00 | 0.00 | 0.00 | 40 | 1007.2 |
| 20260509011421 | 53 | 203 | 0.0 | 2.0 | 0.00 | 0.00 | 0.00 | 42 | 1007.0 |
| 20260509010919 | 53 | 200 | 1.0 | 3.0 | 0.00 | 0.00 | 0.00 | 37 | 1007.2 |
| 20260509010416 | 53 | 199 | 2.0 | 2.0 | 0.00 | 0.00 | 0.00 | 39 | 1007.2 |
| 20260509005913 | 55 | 199 | 0.0 | 0.0 | 0.00 | 0.00 | 0.00 | 36 | 1007.0 |
| 20260509005411 | 56 | 199 | 1.0 | 1.0 | 0.00 | 0.00 | 0.00 | 35 | 1007.0 |
| 20260509004911 | 56 | 208 | 2.0 | 2.0 | 0.00 | 0.00 | 0.00 | 32 | 1007.2 |
| 20260509004408 | 57 | 218 | 2.0 | 2.0 | 0.00 | 0.00 | 0.00 | 33 | 1007.1 |
| 20260509003905 | 58 | 192 | 2.0 | 2.0 | 0.00 | 0.00 | 0.00 | 33 | 1007.0 |
| 20260509003403 | 58 | 226 | 3.0 | 3.0 | 0.00 | 0.00 | 0.00 | 32 | 1006.9 |
| 20260509002900 | 59 | 267 | 2.0 | 3.0 | 0.00 | 0.00 | 0.00 | 29 | 1007.0 |
| 20260509002358 | 59 | 276 | 2.0 | 2.0 | 0.00 | 0.00 | 0.00 | 30 | 1007.0 |
| 20260509001855 | 60 | 273 | 4.0 | 6.0 | 0.00 | 0.00 | 0.00 | 27 | 1007.2 |
| 20260509001351 | 60 | 286 | 4.0 | 4.0 | 0.00 | 0.00 | 0.00 | 28 | 1007.0 |
| 20260509000848 | 60 | 263 | 3.0 | 4.0 | 0.00 | 0.00 | 0.00 | 27 | 1007.0 |
| 20260509000348 | 60 | 243 | 5.0 | 7.0 | 0.00 | 0.00 | 0.00 | 25 | 1007.2 |
| 20260508235842 | 60 | 285 | 2.0 | 4.0 | 0.00 | 0.00 | 0.00 | 27 | 1007.2 |
| 20260508235339 | 60 | 292 | 5.0 | 8.0 | 0.00 | 0.00 | 0.00 | 25 | 1007.1 |
| 20260508234836 | 61 | 314 | 5.0 | 8.0 | 0.00 | 0.00 | 0.00 | 26 | 1007.2 |
| 20260508234332 | 61 | 270 | 4.0 | 8.0 | 0.00 | 0.00 | 0.00 | 25 | 1007.2 |
| 20260508233831 | 62 | 291 | 6.0 | 7.0 | 0.00 | 0.00 | 0.00 | 24 | 1007.0 |
| 20260508233330 | 62 | 307 | 2.0 | 7.0 | 0.00 | 0.00 | 0.00 | 24 | 1007.1 |
| 20260508232826 | 63 | 219 | 1.0 | 8.0 | 0.00 | 0.00 | 0.00 | 24 | 1007.1 |
| 20260508232323 | 63 | 299 | 2.0 | 4.0 | 0.00 | 0.00 | 0.00 | 24 | 1006.8 |
| 20260508231822 | 63 | 255 | 5.0 | 8.0 | 0.00 | 0.00 | 0.00 | 24 | 1006.9 |
| 20260508231317 | 63 | 286 | 6.0 | 9.0 | 0.00 | 0.00 | 0.00 | 23 | 1007.0 |
| 20260508230814 | 63 | 288 | 6.0 | 9.0 | 0.00 | 0.00 | 0.00 | 22 | 1006.8 |
| 20260508230311 | 63 | 286 | 6.0 | 13.0 | 0.00 | 0.00 | 0.00 | 24 | 1006.9 |
| 20260508225808 | 63 | 249 | 14.0 | 19.0 | 0.00 | 0.00 | 0.00 | 22 | 1006.7 |
| 20260508225306 | 63 | 244 | 4.0 | 11.0 | 0.00 | 0.00 | 0.00 | 23 | 1006.8 |
| 20260508224803 | 64 | 261 | 8.0 | 10.0 | 0.00 | 0.00 | 0.00 | 22 | 1006.8 |
| 20260508224300 | 64 | 266 | 7.0 | 9.0 | 0.00 | 0.00 | 0.00 | 21 | 1006.8 |
| 20260508223757 | 64 | 289 | 3.0 | 4.0 | 0.00 | 0.00 | 0.00 | 21 | 1007.0 |
| 20260508223255 | 64 | 298 | 8.0 | 11.0 | 0.00 | 0.00 | 0.00 | 21 | 1007.0 |
| 20260508222752 | 64 | 295 | 6.0 | 8.0 | 0.00 | 0.00 | 0.00 | 22 | 1006.8 |
| 20260508222249 | 64 | 224 | 10.0 | 10.0 | 0.00 | 0.00 | 0.00 | 23 | 1006.8 |
| 20260508221746 | 64 | 292 | 4.0 | 9.0 | 0.00 | 0.00 | 0.00 | 23 | 1006.7 |
| 20260508221241 | 64 | 287 | 5.0 | 14.0 | 0.00 | 0.00 | 0.00 | 22 | 1007.0 |
| 20260508220737 | 64 | 261 | 8.0 | 11.0 | 0.00 | 0.00 | 0.00 | 22 | 1006.8 |
| 20260508220234 | 64 | 298 | 4.0 | 11.0 | 0.00 | 0.00 | 0.00 | 21 | 1006.7 |
| 20260508215731 | 64 | 253 | 9.0 | 10.0 | 0.00 | 0.00 | 0.00 | 22 | 1007.0 |
| 20260508215227 | 64 | 281 | 6.0 | 14.0 | 0.00 | 0.00 | 0.00 | 22 | 1006.9 |
| 20260508214725 | 64 | 247 | 7.0 | 11.0 | 0.00 | 0.00 | 0.00 | 22 | 1007.0 |
| 20260508214222 | 64 | 278 | 10.0 | 13.0 | 0.00 | 0.00 | 0.00 | 21 | 1006.9 |
| 20260508213718 | 64 | 247 | 6.0 | 8.0 | 0.00 | 0.00 | 0.00 | 22 | 1006.9 |
| 20260508213215 | 65 | 296 | 7.0 | 13.0 | 0.00 | 0.00 | 0.00 | 22 | 1006.9 |
| 20260508212711 | 64 | 256 | 8.0 | 15.0 | 0.00 | 0.00 | 0.00 | 20 | 1006.7 |
| 20260508212208 | 64 | 300 | 8.0 | 13.0 | 0.00 | 0.00 | 0.00 | 20 | 1007.0 |
| 20260508211703 | 64 | 216 | 7.0 | 21.0 | 0.00 | 0.00 | 0.00 | 22 | 1007.0 |
| 20260508211159 | 64 | 242 | 6.0 | 10.0 | 0.00 | 0.00 | 0.00 | 23 | 1007.0 |
| 20260508210657 | 64 | 276 | 9.0 | 10.0 | 0.00 | 0.00 | 0.00 | 21 | 1007.1 |
| 20260508210154 | 64 | 303 | 10.0 | 13.0 | 0.00 | 0.00 | 0.00 | 21 | 1007.2 |
| 20260508205651 | 65 | 276 | 7.0 | 9.0 | 0.00 | 0.00 | 0.00 | 21 | 1007.2 |
| 20260508205147 | 64 | 329 | 5.0 | 8.0 | 0.00 | 0.00 | 0.00 | 23 | 1007.2 |
| 20260508204643 | 64 | 268 | 8.0 | 10.0 | 0.00 | 0.00 | 0.00 | 22 | 1007.3 |
| 20260508204140 | 64 | 286 | 10.0 | 11.0 | 0.00 | 0.00 | 0.00 | 22 | 1007.1 |
| 20260508203636 | 64 | 290 | 3.0 | 9.0 | 0.00 | 0.00 | 0.00 | 21 | 1007.4 |
| 20260508203132 | 65 | 250 | 4.0 | 11.0 | 0.00 | 0.00 | 0.00 | 22 | 1007.4 |
| 20260508202629 | 64 | 336 | 5.0 | 10.0 | 0.00 | 0.00 | 0.00 | 23 | 1007.4 |
| 20260508202126 | 64 | 285 | 7.0 | 10.0 | 0.00 | 0.00 | 0.00 | 23 | 1007.4 |
| 20260508201622 | 64 | 189 | 7.0 | 13.0 | 0.00 | 0.00 | 0.00 | 24 | 1007.4 |
| 20260508201119 | 64 | 287 | 8.0 | 17.0 | 0.00 | 0.00 | 0.00 | 23 | 1007.7 |
| 20260508200616 | 65 | 323 | 4.0 | 11.0 | 0.00 | 0.00 | 0.00 | 23 | 1007.7 |
| 20260508200112 | 64 | 50 | 3.0 | 11.0 | 0.00 | 0.00 | 0.00 | 23 | 1007.7 |
| 20260508195609 | 64 | 310 | 1.0 | 9.0 | 0.00 | 0.00 | 0.00 | 23 | 1007.7 |
| 20260508195105 | 63 | 216 | 8.0 | 10.0 | 0.00 | 0.00 | 0.00 | 23 | 1007.9 |
| 20260508194602 | 63 | 251 | 4.0 | 7.0 | 0.00 | 0.00 | 0.00 | 23 | 1008.1 |
| 20260508194059 | 63 | 312 | 7.0 | 11.0 | 0.00 | 0.00 | 0.00 | 22 | 1008.2 |
| 20260508193555 | 63 | 280 | 9.0 | 14.0 | 0.00 | 0.00 | 0.00 | 24 | 1008.2 |
| 20260508193052 | 63 | 287 | 6.0 | 11.0 | 0.00 | 0.00 | 0.00 | 24 | 1008.6 |
| 20260508192549 | 62 | 148 | 1.0 | 3.0 | 0.00 | 0.00 | 0.00 | 24 | 1008.4 |
| 20260508192046 | 62 | 235 | 15.0 | 18.0 | 0.00 | 0.00 | 0.00 | 25 | 1008.6 |
| 20260508191543 | 62 | 295 | 7.0 | 11.0 | 0.00 | 0.00 | 0.00 | 25 | 1008.5 |
| 20260508191039 | 62 | 250 | 10.0 | 14.0 | 0.00 | 0.00 | 0.00 | 26 | 1008.4 |
| 20260508190537 | 62 | 277 | 7.0 | 10.0 | 0.00 | 0.00 | 0.00 | 27 | 1008.6 |
| 20260508190033 | 62 | 250 | 9.0 | 16.0 | 0.00 | 0.00 | 0.00 | 27 | 1008.6 |
| 20260508185530 | 61 | 208 | 6.0 | 9.0 | 0.00 | 0.00 | 0.00 | 28 | 1008.7 |
| 20260508185028 | 62 | 219 | 13.0 | 18.0 | 0.00 | 0.00 | 0.00 | 25 | 1008.8 |
| 20260508184525 | 62 | 288 | 4.0 | 8.0 | 0.00 | 0.00 | 0.00 | 25 | 1009.0 |
| 20260508184022 | 62 | 282 | 4.0 | 7.0 | 0.00 | 0.00 | 0.00 | 26 | 1008.9 |
| 20260508183519 | 62 | 172 | 6.0 | 9.0 | 0.00 | 0.00 | 0.00 | 26 | 1008.9 |
| 20260508183014 | 61 | 305 | 9.0 | 13.0 | 0.00 | 0.00 | 0.00 | 31 | 1009.1 |
| 20260508182511 | 62 | 258 | 7.0 | 8.0 | 0.00 | 0.00 | 0.00 | 25 | 1009.0 |
| 20260508182007 | 61 | 265 | 7.0 | 14.0 | 0.00 | 0.00 | 0.00 | 28 | 1009.1 |
| 20260508181503 | 61 | 229 | 11.0 | 13.0 | 0.00 | 0.00 | 0.00 | 28 | 1009.1 |
| 20260508181001 | 61 | 250 | 9.0 | 13.0 | 0.00 | 0.00 | 0.00 | 27 | 1009.1 |
| 20260508180457 | 62 | 220 | 9.0 | 10.0 | 0.00 | 0.00 | 0.00 | 26 | 1009.2 |
| 20260508175953 | 60 | 218 | 6.0 | 8.0 | 0.00 | 0.00 | 0.00 | 28 | 1009.4 |
| 20260508175450 | 61 | 245 | 6.0 | 13.0 | 0.00 | 0.00 | 0.00 | 28 | 1009.5 |
| 20260508174948 | 61 | 255 | 6.0 | 9.0 | 0.00 | 0.00 | 0.00 | 28 | 1009.5 |
| 20260508174445 | 61 | 282 | 4.0 | 7.0 | 0.00 | 0.00 | 0.00 | 31 | 1009.5 |
| 20260508173942 | 60 | 323 | 4.0 | 9.0 | 0.00 | 0.00 | 0.00 | 31 | 1009.6 |
| 20260508173439 | 60 | 210 | 12.0 | 16.0 | 0.00 | 0.00 | 0.00 | 28 | 1009.8 |
| 20260508172934 | 59 | 233 | 8.0 | 10.0 | 0.00 | 0.00 | 0.00 | 28 | 1009.8 |
| 20260508172432 | 60 | 234 | 13.0 | 15.0 | 0.00 | 0.00 | 0.00 | 29 | 1009.7 |
| 20260508171928 | 59 | 261 | 6.0 | 9.0 | 0.00 | 0.00 | 0.00 | 31 | 1010.0 |
| 20260508171425 | 59 | 277 | 7.0 | 9.0 | 0.00 | 0.00 | 0.00 | 30 | 1010.3 |
| 20260508170922 | 60 | 283 | 1.0 | 9.0 | 0.00 | 0.00 | 0.00 | 30 | 1010.1 |
| 20260508170419 | 59 | 216 | 8.0 | 15.0 | 0.00 | 0.00 | 0.00 | 30 | 1010.3 |
| 20260508165915 | 60 | 267 | 10.0 | 16.0 | 0.00 | 0.00 | 0.00 | 29 | 1010.5 |
| 20260508165414 | 58 | 245 | 4.0 | 7.0 | 0.00 | 0.00 | 0.00 | 29 | 1010.4 |
| 20260508164909 | 58 | 253 | 6.0 | 10.0 | 0.00 | 0.00 | 0.00 | 30 | 1010.6 |
| 20260508164407 | 58 | 286 | 6.0 | 10.0 | 0.00 | 0.00 | 0.00 | 31 | 1010.6 |
| 20260508163904 | 58 | 245 | 13.0 | 16.0 | 0.00 | 0.00 | 0.00 | 30 | 1010.5 |
| 20260508163402 | 58 | 269 | 4.0 | 9.0 | 0.00 | 0.00 | 0.00 | 29 | 1010.6 |
| 20260508162856 | 58 | 280 | 7.0 | 10.0 | 0.00 | 0.00 | 0.00 | 30 | 1011.0 |
| 20260508162354 | 58 | 193 | 9.0 | 11.0 | 0.00 | 0.00 | 0.00 | 29 | 1010.6 |
| 20260508161851 | 57 | 211 | 11.0 | 13.0 | 0.00 | 0.00 | 0.00 | 31 | 1010.7 |
| 20260508161348 | 58 | 258 | 3.0 | 8.0 | 0.00 | 0.00 | 0.00 | 30 | 1010.9 |
| 20260508160845 | 58 | 210 | 8.0 | 10.0 | 0.00 | 0.00 | 0.00 | 32 | 1010.7 |
| 20260508160344 | 58 | 208 | 12.0 | 16.0 | 0.00 | 0.00 | 0.00 | 31 | 1010.9 |
| 20260508155840 | 57 | 284 | 6.0 | 7.0 | 0.00 | 0.00 | 0.00 | 34 | 1011.1 |
| 20260508155337 | 57 | 266 | 4.0 | 8.0 | 0.00 | 0.00 | 0.00 | 34 | 1010.9 |
| 20260508154834 | 57 | 231 | 4.0 | 10.0 | 0.00 | 0.00 | 0.00 | 31 | 1011.0 |
| 20260508154332 | 57 | 261 | 7.0 | 11.0 | 0.00 | 0.00 | 0.00 | 31 | 1010.9 |
| 20260508153828 | 56 | 202 | 8.0 | 9.0 | 0.00 | 0.00 | 0.00 | 31 | 1011.0 |
| 20260508153326 | 57 | 263 | 5.0 | 15.0 | 0.00 | 0.00 | 0.00 | 29 | 1011.2 |
| 20260508152821 | 56 | 146 | 0.0 | 1.0 | 0.00 | 0.00 | 0.00 | 36 | 1011.0 |
| 20260508152318 | 56 | 244 | 5.0 | 9.0 | 0.00 | 0.00 | 0.00 | 33 | 1011.2 |
| 20260508151814 | 55 | 274 | 4.0 | 8.0 | 0.00 | 0.00 | 0.00 | 34 | 1011.3 |
| 20260508151312 | 56 | 279 | 6.0 | 9.0 | 0.00 | 0.00 | 0.00 | 33 | 1011.3 |
| 20260508150808 | 56 | 290 | 2.0 | 7.0 | 0.00 | 0.00 | 0.00 | 33 | 1011.2 |
| 20260508150305 | 56 | 244 | 10.0 | 10.0 | 0.00 | 0.00 | 0.00 | 34 | 1011.3 |
| 20260508145801 | 56 | 167 | 8.0 | 9.0 | 0.00 | 0.00 | 0.00 | 34 | 1011.4 |
| 20260508145257 | 55 | 222 | 2.0 | 7.0 | 0.00 | 0.00 | 0.00 | 38 | 1011.5 |
| 20260508144753 | 55 | 159 | 3.0 | 7.0 | 0.00 | 0.00 | 0.00 | 35 | 1011.4 |
| 20260508144252 | 55 | 273 | 5.0 | 8.0 | 0.00 | 0.00 | 0.00 | 36 | 1011.5 |
| 20260508143749 | 55 | 162 | 4.0 | 6.0 | 0.00 | 0.00 | 0.00 | 36 | 1011.3 |
| 20260508143246 | 54 | 211 | 6.0 | 7.0 | 0.00 | 0.00 | 0.00 | 37 | 1011.3 |
| 20260508142742 | 54 | 223 | 7.0 | 8.0 | 0.00 | 0.00 | 0.00 | 44 | 1011.6 |
| 20260508142239 | 53 | 286 | 5.0 | 6.0 | 0.00 | 0.00 | 0.00 | 45 | 1011.6 |
| 20260508141736 | 53 | 206 | 6.0 | 10.0 | 0.00 | 0.00 | 0.00 | 43 | 1011.5 |
| 20260508141233 | 53 | 201 | 3.0 | 6.0 | 0.00 | 0.00 | 0.00 | 48 | 1011.9 |
| 20260508140730 | 53 | 204 | 3.0 | 6.0 | 0.00 | 0.00 | 0.00 | 45 | 1011.8 |
| 20260508140227 | 53 | 176 | 3.0 | 6.0 | 0.00 | 0.00 | 0.00 | 47 | 1011.8 |
| 20260508135723 | 52 | 181 | 3.0 | 6.0 | 0.00 | 0.00 | 0.00 | 50 | 1012.0 |
| 20260508135219 | 51 | 191 | 4.0 | 4.0 | 0.00 | 0.00 | 0.00 | 52 | 1012.0 |
| 20260508134715 | 51 | 153 | 3.0 | 4.0 | 0.00 | 0.00 | 0.00 | 51 | 1011.8 |
| 20260508134213 | 51 | 252 | 3.0 | 6.0 | 0.00 | 0.00 | 0.00 | 54 | 1011.7 |
| 20260508133709 | 51 | 219 | 4.0 | 4.0 | 0.00 | 0.00 | 0.00 | 55 | 1011.9 |
| 20260508133207 | 50 | 231 | 5.0 | 7.0 | 0.00 | 0.00 | 0.00 | 55 | 1011.9 |
| 20260508132704 | 50 | 195 | 7.0 | 9.0 | 0.00 | 0.00 | 0.00 | 54 | 1012.0 |
| 20260508132201 | 49 | 246 | 3.0 | 6.0 | 0.00 | 0.00 | 0.00 | 57 | 1012.0 |
| 20260508131657 | 49 | 165 | 6.0 | 7.0 | 0.00 | 0.00 | 0.00 | 55 | 1012.1 |
| 20260508131154 | 49 | 205 | 5.0 | 7.0 | 0.00 | 0.00 | 0.00 | 59 | 1012.1 |
| 20260508130650 | 48 | 198 | 4.0 | 7.0 | 0.00 | 0.00 | 0.00 | 63 | 1011.9 |
| 20260508130148 | 47 | 178 | 3.0 | 6.0 | 0.00 | 0.00 | 0.00 | 63 | 1012.2 |
| 20260508125643 | 47 | 168 | 4.0 | 6.0 | 0.00 | 0.00 | 0.00 | 66 | 1012.1 |
| 20260508125140 | 46 | 190 | 4.0 | 6.0 | 0.00 | 0.00 | 0.00 | 67 | 1011.9 |
| 20260508124638 | 46 | 179 | 3.0 | 4.0 | 0.00 | 0.00 | 0.00 | 69 | 1012.0 |
| 20260508124135 | 45 | 188 | 5.0 | 4.0 | 0.00 | 0.00 | 0.00 | 69 | 1012.1 |
| 20260508123633 | 44 | 196 | 2.0 | 3.0 | 0.00 | 0.00 | 0.00 | 72 | 1011.9 |
| 20260508123131 | 44 | 185 | 3.0 | 4.0 | 0.00 | 0.00 | 0.00 | 73 | 1012.0 |
| 20260508122626 | 43 | 219 | 3.0 | 3.0 | 0.00 | 0.00 | 0.00 | 78 | 1012.0 |
| 20260508122124 | 42 | 197 | 2.0 | 3.0 | 0.00 | 0.00 | 0.00 | 78 | 1011.9 |
| 20260508121622 | 42 | 208 | 2.0 | 2.0 | 0.00 | 0.00 | 0.00 | 79 | 1011.9 |
| 20260508121120 | 41 | 201 | 2.0 | 3.0 | 0.00 | 0.00 | 0.00 | 79 | 1012.0 |
| 20260508120617 | 40 | 202 | 2.0 | 2.0 | 0.00 | 0.00 | 0.00 | 83 | 1011.8 |
| 20260508120115 | 39 | 202 | 1.0 | 2.0 | 0.00 | 0.00 | 0.00 | 86 | 1012.1 |
| 20260508115612 | 38 | 127 | 0.0 | 0.0 | 0.00 | 0.00 | 0.00 | 89 | 1011.4 |
| 20260508115109 | 37 | 126 | 0.0 | 0.0 | 0.00 | 0.00 | 0.00 | 91 | 1011.6 |
| 20260508114606 | 37 | 126 | 0.0 | 0.0 | 0.00 | 0.00 | 0.00 | 92 | 1011.7 |
| 20260508114102 | 36 | 127 | 0.0 | 0.0 | 0.00 | 0.00 | 0.00 | 92 | 1011.5 |
| 20260508113559 | 35 | 127 | 0.0 | 0.0 | 0.00 | 0.00 | 0.00 | 93 | 1011.6 |
| 20260508113058 | 35 | 126 | 0.0 | 0.0 | 0.00 | 0.00 | 0.00 | 93 | 1011.5 |
| 20260508112553 | 35 | 126 | 0.0 | 0.0 | 0.00 | 0.00 | 0.00 | 93 | 1011.4 |
| 20260508112050 | 35 | 126 | 0.0 | 0.0 | 0.00 | 0.00 | 0.00 | 93 | 1011.2 |
| 20260508111547 | 34 | 126 | 0.0 | 0.0 | 0.00 | 0.00 | 0.00 | 93 | 1011.3 |
| 20260508111044 | 34 | 126 | 0.0 | 0.0 | 0.00 | 0.00 | 0.00 | 93 | 1011.3 |
| 20260508110543 | 34 | 126 | 0.0 | 0.0 | 0.00 | 0.00 | 0.00 | 93 | 1011.4 |
| 20260508110038 | 33 | 126 | 0.0 | 0.0 | 0.00 | 0.00 | 0.00 | 93 | 1011.4 |
| 20260508105533 | 33 | 125 | 0.0 | 0.0 | 0.00 | 0.00 | 0.00 | 93 | 1011.1 |
| 20260508105031 | 34 | 125 | 0.0 | 0.0 | 0.00 | 0.00 | 0.00 | 93 | 1011.2 |
| 20260508104529 | 34 | 125 | 0.0 | 0.0 | 0.00 | 0.00 | 0.00 | 93 | 1011.2 |
| 20260508104024 | 33 | 125 | 0.0 | 0.0 | 0.00 | 0.00 | 0.00 | 93 | 1011.2 |
| 20260508103521 | 33 | 125 | 0.0 | 0.0 | 0.00 | 0.00 | 0.00 | 93 | 1011.3 |
| 20260508103019 | 33 | 125 | 0.0 | 0.0 | 0.00 | 0.00 | 0.00 | 92 | 1011.3 |
| 20260508102517 | 34 | 126 | 0.0 | 0.0 | 0.00 | 0.00 | 0.00 | 92 | 1011.3 |
| 20260508102014 | 34 | 126 | 0.0 | 0.0 | 0.00 | 0.00 | 0.00 | 92 | 1011.2 |
| 20260508101512 | 34 | 125 | 0.0 | 0.0 | 0.00 | 0.00 | 0.00 | 92 | 1011.4 |
| 20260508101008 | 34 | 125 | 0.0 | 0.0 | 0.00 | 0.00 | 0.00 | 92 | 1011.4 |
| 20260508100507 | 34 | 125 | 0.0 | 0.0 | 0.00 | 0.00 | 0.00 | 92 | 1011.4 |
| 20260508100003 | 34 | 125 | 0.0 | 0.0 | 0.00 | 0.00 | 0.00 | 92 | 1011.3 |
| 20260508095500 | 34 | 126 | 0.0 | 0.0 | 0.00 | 0.00 | 0.00 | 91 | 1011.4 |
| 20260508094957 | 35 | 125 | 0.0 | 0.0 | 0.00 | 0.00 | 0.00 | 91 | 1011.5 |
| 20260508094454 | 35 | 125 | 0.0 | 0.0 | 0.00 | 0.00 | 0.00 | 92 | 1011.5 |
| 20260508093950 | 35 | 125 | 0.0 | 0.0 | 0.00 | 0.00 | 0.00 | 91 | 1011.4 |
| 20260508093448 | 35 | 125 | 0.0 | 0.0 | 0.00 | 0.00 | 0.00 | 91 | 1011.4 |
| 20260508092946 | 35 | 125 | 0.0 | 0.0 | 0.00 | 0.00 | 0.00 | 91 | 1011.2 |
| 20260508092443 | 35 | 125 | 0.0 | 0.0 | 0.00 | 0.00 | 0.00 | 91 | 1011.6 |
| 20260508091942 | 35 | 125 | 0.0 | 0.0 | 0.00 | 0.00 | 0.00 | 91 | 1011.5 |
| 20260508091438 | 35 | 125 | 0.0 | 0.0 | 0.00 | 0.00 | 0.00 | 90 | 1011.5 |
| 20260508090935 | 35 | 125 | 0.0 | 0.0 | 0.00 | 0.00 | 0.00 | 90 | 1011.4 |
| 20260508090434 | 35 | 125 | 0.0 | 0.0 | 0.00 | 0.00 | 0.00 | 89 | 1011.3 |
| 20260508085929 | 35 | 125 | 0.0 | 0.0 | 0.00 | 0.00 | 0.00 | 88 | 1011.4 |
| 20260508085426 | 36 | 125 | 0.0 | 0.0 | 0.00 | 0.00 | 0.00 | 88 | 1011.4 |
| 20260508084923 | 35 | 125 | 0.0 | 0.0 | 0.00 | 0.00 | 0.00 | 89 | 1011.6 |
| 20260508084419 | 35 | 125 | 0.0 | 0.0 | 0.00 | 0.00 | 0.00 | 89 | 1011.5 |
| 20260508083918 | 36 | 125 | 0.0 | 0.0 | 0.00 | 0.00 | 0.00 | 88 | 1011.4 |
| 20260508083415 | 36 | 125 | 0.0 | 0.0 | 0.00 | 0.00 | 0.00 | 88 | 1011.5 |
| 20260508082914 | 36 | 125 | 0.0 | 0.0 | 0.00 | 0.00 | 0.00 | 88 | 1011.4 |
| 20260508082412 | 36 | 125 | 0.0 | 0.0 | 0.00 | 0.00 | 0.00 | 88 | 1011.8 |
| 20260508081910 | 36 | 125 | 0.0 | 0.0 | 0.00 | 0.00 | 0.00 | 88 | 1011.6 |
| 20260508081406 | 36 | 125 | 0.0 | 0.0 | 0.00 | 0.00 | 0.00 | 87 | 1011.6 |
| 20260508080903 | 37 | 125 | 0.0 | 0.0 | 0.00 | 0.00 | 0.00 | 85 | 1011.8 |
| 20260508080401 | 37 | 126 | 0.0 | 0.0 | 0.00 | 0.00 | 0.00 | 84 | 1011.6 |
| 20260508075857 | 37 | 125 | 1.0 | 0.0 | 0.00 | 0.00 | 0.00 | 85 | 1011.8 |
| 20260508075354 | 37 | 125 | 0.0 | 0.0 | 0.00 | 0.00 | 0.00 | 84 | 1011.6 |
| 20260508074852 | 38 | 126 | 0.0 | 0.0 | 0.00 | 0.00 | 0.00 | 84 | 1011.7 |
| 20260508074349 | 38 | 127 | 0.0 | 1.0 | 0.00 | 0.00 | 0.00 | 84 | 1011.7 |
| 20260508073846 | 39 | 127 | 1.0 | 1.0 | 0.00 | 0.00 | 0.00 | 83 | 1011.7 |
| 20260508073344 | 39 | 127 | 0.0 | 1.0 | 0.00 | 0.00 | 0.00 | 83 | 1011.8 |
| 20260508072840 | 39 | 127 | 1.0 | 1.0 | 0.00 | 0.00 | 0.00 | 83 | 1011.8 |
| 20260508072336 | 39 | 127 | 1.0 | 1.0 | 0.00 | 0.00 | 0.00 | 83 | 1011.8 |
| 20260508071834 | 39 | 127 | 2.0 | 2.0 | 0.00 | 0.00 | 0.00 | 82 | 1011.9 |
| 20260508071333 | 39 | 127 | 2.0 | 2.0 | 0.00 | 0.00 | 0.00 | 83 | 1011.7 |
| 20260508070830 | 39 | 127 | 2.0 | 2.0 | 0.00 | 0.00 | 0.00 | 82 | 1011.7 |
| 20260508070328 | 39 | 126 | 0.0 | 0.0 | 0.00 | 0.00 | 0.00 | 82 | 1011.9 |
| 20260508065825 | 39 | 126 | 0.0 | 0.0 | 0.00 | 0.00 | 0.00 | 82 | 1011.6 |
| 20260508065323 | 39 | 126 | 0.0 | 0.0 | 0.00 | 0.00 | 0.00 | 82 | 1011.8 |
| 20260508064821 | 39 | 126 | 0.0 | 0.0 | 0.00 | 0.00 | 0.00 | 81 | 1011.6 |
| 20260508064318 | 40 | 126 | 0.0 | 0.0 | 0.00 | 0.00 | 0.00 | 81 | 1011.6 |
| 20260508063815 | 40 | 126 | 0.0 | 0.0 | 0.00 | 0.00 | 0.00 | 81 | 1011.7 |
| 20260508063313 | 40 | 127 | 0.0 | 0.0 | 0.00 | 0.00 | 0.00 | 81 | 1011.6 |
| 20260508062810 | 40 | 127 | 0.0 | 0.0 | 0.00 | 0.00 | 0.00 | 80 | 1011.7 |
| 20260508062308 | 41 | 127 | 1.0 | 1.0 | 0.00 | 0.00 | 0.00 | 80 | 1011.8 |
| 20260508061804 | 41 | 126 | 2.0 | 2.0 | 0.00 | 0.00 | 0.00 | 78 | 1012.0 |
| 20260508061302 | 41 | 105 | 2.0 | 2.0 | 0.00 | 0.00 | 0.00 | 79 | 1012.0 |
| 20260508060758 | 40 | 93 | 0.0 | 1.0 | 0.00 | 0.00 | 0.00 | 78 | 1011.8 |
| 20260508060256 | 41 | 93 | 0.0 | 0.0 | 0.00 | 0.00 | 0.00 | 76 | 1011.7 |
| 20260508055751 | 41 | 93 | 2.0 | 2.0 | 0.00 | 0.00 | 0.00 | 76 | 1012.0 |
| 20260508055249 | 42 | 69 | 0.0 | 0.0 | 0.00 | 0.00 | 0.00 | 74 | 1012.1 |
| 20260508054745 | 42 | 70 | 1.0 | 2.0 | 0.00 | 0.00 | 0.00 | 73 | 1011.9 |
| 20260508054243 | 42 | 34 | 0.0 | 0.0 | 0.00 | 0.00 | 0.00 | 77 | 1012.3 |
| 20260508053740 | 42 | 34 | 0.0 | 0.0 | 0.00 | 0.00 | 0.00 | 77 | 1012.1 |
| 20260508053237 | 42 | 34 | 0.0 | 1.0 | 0.00 | 0.00 | 0.00 | 74 | 1012.3 |
| 20260508052734 | 42 | 34 | 0.0 | 0.0 | 0.00 | 0.00 | 0.00 | 73 | 1012.3 |
| 20260508052231 | 42 | 34 | 0.0 | 0.0 | 0.00 | 0.00 | 0.00 | 72 | 1012.2 |
| 20260508051727 | 42 | 34 | 0.0 | 0.0 | 0.00 | 0.00 | 0.00 | 73 | 1012.1 |
| 20260508051223 | 42 | 34 | 0.0 | 0.0 | 0.00 | 0.00 | 0.00 | 72 | 1012.0 |
| 20260508050719 | 42 | 34 | 0.0 | 0.0 | 0.00 | 0.00 | 0.00 | 73 | 1012.2 |
| 20260508050217 | 42 | 34 | 0.0 | 0.0 | 0.00 | 0.00 | 0.00 | 73 | 1012.0 |
| 20260508045712 | 42 | 34 | 0.0 | 0.0 | 0.00 | 0.00 | 0.00 | 73 | 1012.3 |
| 20260508045210 | 42 | 34 | 0.0 | 0.0 | 0.00 | 0.00 | 0.00 | 72 | 1012.0 |
| 20260508044707 | 42 | 34 | 0.0 | 0.0 | 0.00 | 0.00 | 0.00 | 72 | 1012.0 |
| 20260508044204 | 42 | 34 | 0.0 | 0.0 | 0.00 | 0.00 | 0.00 | 72 | 1012.0 |
| 20260508043659 | 42 | 34 | 0.0 | 0.0 | 0.00 | 0.00 | 0.00 | 72 | 1012.0 |
| 20260508043158 | 42 | 34 | 0.0 | 0.0 | 0.00 | 0.00 | 0.00 | 70 | 1012.0 |
| 20260508042654 | 42 | 34 | 0.0 | 0.0 | 0.00 | 0.00 | 0.00 | 69 | 1011.9 |
| 20260508042151 | 43 | 34 | 0.0 | 0.0 | 0.00 | 0.00 | 0.00 | 70 | 1011.8 |
| 20260508041647 | 42 | 34 | 0.0 | 0.0 | 0.00 | 0.00 | 0.00 | 68 | 1012.1 |
| 20260508041145 | 42 | 34 | 0.0 | 0.0 | 0.00 | 0.00 | 0.00 | 68 | 1012.0 |
| 20260508040641 | 42 | 34 | 0.0 | 0.0 | 0.00 | 0.00 | 0.00 | 65 | 1012.1 |
| 20260508040139 | 43 | 34 | 0.0 | 0.0 | 0.00 | 0.00 | 0.00 | 65 | 1011.9 |
| 20260508035636 | 43 | 34 | 0.0 | 0.0 | 0.00 | 0.00 | 0.00 | 65 | 1011.9 |
| 20260508035133 | 43 | 34 | 0.0 | 0.0 | 0.00 | 0.00 | 0.00 | 64 | 1012.1 |
| 20260508034630 | 43 | 34 | 0.0 | 0.0 | 0.00 | 0.00 | 0.00 | 63 | 1012.1 |
| 20260508034127 | 43 | 34 | 0.0 | 0.0 | 0.00 | 0.00 | 0.00 | 62 | 1011.8 |
| 20260508033624 | 43 | 34 | 0.0 | 0.0 | 0.00 | 0.00 | 0.00 | 64 | 1012.0 |
| 20260508033123 | 43 | 34 | 0.0 | 0.0 | 0.00 | 0.00 | 0.00 | 63 | 1012.0 |
| 20260508032618 | 43 | 34 | 0.0 | 0.0 | 0.00 | 0.00 | 0.00 | 63 | 1011.7 |